createdAt,value
2019-05-12T00:01:28.591Z,7.60
2019-05-12T00:04:18.857Z,7.50
2019-05-12T00:07:08.658Z,7.50
2019-05-12T00:09:58.137Z,7.50
2019-05-12T00:12:47.924Z,7.60
2019-05-12T00:15:35.346Z,7.50
2019-05-12T00:18:22.881Z,7.50
2019-05-12T00:21:10.581Z,7.50
2019-05-12T00:24:13.597Z,7.50
2019-05-12T00:27:03.931Z,7.50
2019-05-12T00:29:51.610Z,7.60
2019-05-12T00:32:39.252Z,7.60
2019-05-12T00:35:28.484Z,7.50
2019-05-12T00:38:17.724Z,7.50
2019-05-12T00:41:05.859Z,7.50
2019-05-12T00:43:53.566Z,7.50
2019-05-12T00:46:41.144Z,7.40
2019-05-12T00:49:29.269Z,7.50
2019-05-12T00:52:18.651Z,7.50
2019-05-12T00:55:07.914Z,7.50
2019-05-12T00:57:58.096Z,7.50
2019-05-12T01:00:48.112Z,7.50
2019-05-12T01:03:35.030Z,7.40
2019-05-12T01:06:22.677Z,7.50
2019-05-12T01:09:10.557Z,7.50
2019-05-12T01:11:58.915Z,7.50
2019-05-12T01:14:47.828Z,7.50
2019-05-12T01:17:35.413Z,7.40
2019-05-12T01:20:22.788Z,7.40
2019-05-12T01:23:10.451Z,7.40
2019-05-12T01:25:58.696Z,7.50
2019-05-12T01:28:48.755Z,7.50
2019-05-12T01:31:41.890Z,7.50
2019-05-12T01:34:29.951Z,7.50
2019-05-12T01:37:23.590Z,7.40
2019-05-12T01:40:11.629Z,7.40
2019-05-12T01:42:59.195Z,7.40
2019-05-12T01:45:48.270Z,7.40
2019-05-12T01:48:37.753Z,7.50
2019-05-12T01:51:28.331Z,7.50
2019-05-12T01:54:18.696Z,7.40
2019-05-12T01:57:07.971Z,7.50
2019-05-12T01:59:55.012Z,7.50
2019-05-12T02:02:42.706Z,7.50
2019-05-12T02:05:30.679Z,7.50
2019-05-12T02:08:23.722Z,7.40
2019-05-12T02:11:29.064Z,7.50
2019-05-12T02:14:18.277Z,7.60
2019-05-12T02:17:06.103Z,7.50
2019-05-12T02:19:53.540Z,7.60
2019-05-12T02:22:41.259Z,7.50
2019-05-12T02:25:29.085Z,7.40
2019-05-12T02:28:18.010Z,7.50
2019-05-12T02:31:09.251Z,7.50
2019-05-12T02:33:55.448Z,7.50
2019-05-12T02:36:44.883Z,7.50
2019-05-12T02:39:35.304Z,7.50
2019-05-12T02:42:24.429Z,7.50
2019-05-12T02:45:15.119Z,7.50
2019-05-12T02:48:00.777Z,7.40
2019-05-12T02:50:48.347Z,7.40
2019-05-12T02:53:36.466Z,7.50
2019-05-12T02:56:26.102Z,7.40
2019-05-12T02:59:16.267Z,7.40
2019-05-12T03:02:05.436Z,7.40
2019-05-12T03:04:55.006Z,7.40
2019-05-12T03:07:44.930Z,7.40
2019-05-12T03:10:35.404Z,7.40
2019-05-12T03:13:25.340Z,7.40
2019-05-12T03:16:14.917Z,7.40
2019-05-12T03:19:05.004Z,7.30
2019-05-12T03:21:56.202Z,7.40
2019-05-12T03:24:45.820Z,7.30
2019-05-12T03:27:35.059Z,7.30
2019-05-12T03:30:29.227Z,7.40
2019-05-12T03:33:19.002Z,7.40
2019-05-12T03:36:08.954Z,7.40
2019-05-12T03:38:55.204Z,7.40
2019-05-12T03:41:46.336Z,7.40
2019-05-12T03:44:35.195Z,7.40
2019-05-12T03:47:25.113Z,7.30
2019-05-12T03:50:15.257Z,7.50
2019-05-12T03:53:10.869Z,7.50
2019-05-12T03:56:04.112Z,7.50
2019-05-12T03:58:53.931Z,7.50
2019-05-12T04:01:44.812Z,7.50
2019-05-12T04:04:34.516Z,7.50
2019-05-12T04:07:24.372Z,7.40
2019-05-12T04:10:11.329Z,7.40
2019-05-12T04:13:05.483Z,7.40
2019-05-12T04:15:55.687Z,7.40
2019-05-12T04:18:45.219Z,7.40
2019-05-12T04:21:35.009Z,7.40
2019-05-12T04:24:24.922Z,7.30
2019-05-12T04:27:15.594Z,7.30
2019-05-12T04:30:05.958Z,7.30
2019-05-12T04:32:56.565Z,7.30
2019-05-12T04:35:50.964Z,7.30
2019-05-12T04:38:40.406Z,7.20
2019-05-12T04:41:35.421Z,7.30
2019-05-12T04:44:25.124Z,7.30
2019-05-12T04:47:16.233Z,7.30
2019-05-12T04:50:05.354Z,7.30
2019-05-12T04:52:56.193Z,7.20
2019-05-12T04:56:04.514Z,7.20
2019-05-12T04:58:36.807Z,7.20
2019-05-12T05:01:25.324Z,7.20
2019-05-12T05:04:17.401Z,7.20
2019-05-12T05:07:05.330Z,7.10
2019-05-12T05:09:55.159Z,7.10
2019-05-12T05:12:44.937Z,7.20
2019-05-12T05:15:38.001Z,7.20
2019-05-12T05:18:28.695Z,7.30
2019-05-12T05:21:20.770Z,7.20
2019-05-12T05:24:09.681Z,7.30
2019-05-12T05:27:04.272Z,7.40
2019-05-12T05:29:54.193Z,7.40
2019-05-12T05:32:41.376Z,7.50
2019-05-12T05:35:39.611Z,7.50
2019-05-12T05:38:29.316Z,7.60
2019-05-12T05:41:21.046Z,7.60
2019-05-12T05:44:08.887Z,7.60
2019-05-12T05:47:00.927Z,7.50
2019-05-12T05:49:53.978Z,7.40
2019-05-12T05:52:43.820Z,7.50
2019-05-12T05:55:35.771Z,7.50
2019-05-12T05:58:26.187Z,7.60
2019-05-12T06:01:18.452Z,7.60
2019-05-12T06:04:08.667Z,7.60
2019-05-12T06:06:58.738Z,7.60
2019-05-12T06:09:50.284Z,7.70
2019-05-12T06:12:40.322Z,7.70
2019-05-12T06:15:35.895Z,7.70
2019-05-12T06:18:23.823Z,7.60
2019-05-12T06:21:13.573Z,7.70
2019-05-12T06:24:08.864Z,7.70
2019-05-12T06:27:00.372Z,7.70
2019-05-12T06:29:46.188Z,7.80
2019-05-12T06:32:34.463Z,7.80
2019-05-12T06:35:37.301Z,7.70
2019-05-12T06:38:25.359Z,7.70
2019-05-12T06:41:20.941Z,7.70
2019-05-12T06:44:14.917Z,7.80
2019-05-12T06:47:08.145Z,7.80
2019-05-12T06:49:54.780Z,8.00
2019-05-12T06:52:44.585Z,8.20
2019-05-12T06:55:36.656Z,8.40
2019-05-12T06:58:27.662Z,8.50
2019-05-12T07:01:19.116Z,8.40
2019-05-12T07:04:07.660Z,8.40
2019-05-12T07:06:56.164Z,8.40
2019-05-12T07:09:53.624Z,8.40
2019-05-12T07:12:39.642Z,8.50
2019-05-12T07:15:23.372Z,8.40
2019-05-12T07:18:17.199Z,8.50
2019-05-12T07:21:04.112Z,8.70
2019-05-12T07:23:53.477Z,8.70
2019-05-12T07:26:41.480Z,8.60
2019-05-12T07:29:29.486Z,8.60
2019-05-12T07:32:21.764Z,8.70
2019-05-12T07:35:08.655Z,8.60
2019-05-12T07:37:57.864Z,8.90
2019-05-12T07:40:46.277Z,9.00
2019-05-12T07:43:35.329Z,8.90
2019-05-12T07:46:24.968Z,8.60
2019-05-12T07:49:14.125Z,8.60
2019-05-12T07:52:03.602Z,8.80
2019-05-12T07:54:55.719Z,9.10
2019-05-12T07:57:53.051Z,9.10
2019-05-12T08:00:31.061Z,9.10
2019-05-12T08:03:21.205Z,9.40
2019-05-12T08:06:08.923Z,9.60
2019-05-12T08:08:59.048Z,9.50
2019-05-12T08:11:46.324Z,9.80
2019-05-12T08:14:34.395Z,10.10
2019-05-12T08:17:24.646Z,9.30
2019-05-12T08:20:13.502Z,9.30
2019-05-12T08:23:05.847Z,9.70
2019-05-12T08:25:53.401Z,9.80
2019-05-12T08:28:41.170Z,9.60
2019-05-12T08:31:33.196Z,9.90
2019-05-12T08:34:18.512Z,10.20
2019-05-12T08:37:06.928Z,10.80
2019-05-12T08:40:03.140Z,11.10
2019-05-12T08:42:44.534Z,11.40
2019-05-12T08:45:37.078Z,12.40
2019-05-12T08:48:24.856Z,12.60
2019-05-12T08:51:14.534Z,11.50
2019-05-12T08:54:02.948Z,10.90
2019-05-12T08:56:51.142Z,11.30
2019-05-12T08:59:39.744Z,11.80
2019-05-12T09:02:27.878Z,11.90
2019-05-12T09:05:15.887Z,12.00
2019-05-12T09:08:03.986Z,11.40
2019-05-12T09:10:55.250Z,10.70
2019-05-12T09:13:43.360Z,11.10
2019-05-12T09:16:35.556Z,10.80
2019-05-12T09:19:26.931Z,11.00
2019-05-12T09:22:16.690Z,11.70
2019-05-12T09:25:06.375Z,12.40
2019-05-12T09:27:54.245Z,12.50
2019-05-12T09:30:47.600Z,13.00
2019-05-12T09:33:32.432Z,12.80
2019-05-12T09:36:21.782Z,12.40
2019-05-12T09:39:10.753Z,11.80
2019-05-12T09:41:59.333Z,11.50
2019-05-12T09:44:47.395Z,11.50
2019-05-12T09:47:36.606Z,12.30
2019-05-12T09:50:24.619Z,13.30
2019-05-12T09:53:14.399Z,13.60
2019-05-12T09:56:04.511Z,12.90
2019-05-12T09:59:01.673Z,12.50
2019-05-12T10:01:45.465Z,11.90
2019-05-12T10:04:33.073Z,11.30
2019-05-12T10:07:20.769Z,11.10
2019-05-12T10:10:09.407Z,11.30
2019-05-12T10:12:57.509Z,11.70
2019-05-12T10:15:45.239Z,12.00
2019-05-12T10:18:33.690Z,11.90
2019-05-12T10:21:23.776Z,11.90
2019-05-12T10:24:11.939Z,12.60
2019-05-12T10:26:59.744Z,13.10
2019-05-12T10:29:46.996Z,13.20
2019-05-12T10:32:34.651Z,13.00
2019-05-12T10:35:26.255Z,12.90
2019-05-12T10:38:13.758Z,13.20
2019-05-12T10:41:03.814Z,12.70
2019-05-12T10:43:55.919Z,12.30
2019-05-12T10:46:42.393Z,11.70
2019-05-12T10:49:33.680Z,11.40
2019-05-12T10:52:29.452Z,11.30
2019-05-12T10:55:20.467Z,11.10
2019-05-12T10:58:09.085Z,11.20
2019-05-12T11:00:58.848Z,11.30
2019-05-12T11:04:08.217Z,11.60
2019-05-12T11:07:05.990Z,12.40
2019-05-12T11:10:14.892Z,12.60
2019-05-12T11:13:05.801Z,12.70
2019-05-12T11:15:54.366Z,13.10
2019-05-12T11:18:48.394Z,14.40
2019-05-12T11:21:44.255Z,14.60
2019-05-12T11:24:33.722Z,14.90
2019-05-12T11:27:28.049Z,15.40
2019-05-12T11:34:08.455Z,13.70
2019-05-12T11:37:29.170Z,12.50
2019-05-12T11:40:23.959Z,11.90
2019-05-12T11:43:14.300Z,12.10
2019-05-12T11:46:08.619Z,12.40
2019-05-12T11:49:14.583Z,13.50
2019-05-12T11:52:10.801Z,13.50
2019-05-12T11:55:29.851Z,14.00
2019-05-12T11:58:26.211Z,13.70
2019-05-12T12:01:15.857Z,13.00
2019-05-12T12:04:24.054Z,13.20
2019-05-12T12:07:09.090Z,13.50
2019-05-12T12:10:23.536Z,14.60
2019-05-12T12:13:25.586Z,14.20
2019-05-12T12:16:11.424Z,13.30
2019-05-12T12:19:02.591Z,12.50
2019-05-12T12:21:50.142Z,11.70
2019-05-12T12:24:38.509Z,11.00
2019-05-12T12:27:26.634Z,10.40
2019-05-12T12:30:19.533Z,10.50
2019-05-12T12:33:10.921Z,10.50
2019-05-12T12:36:05.302Z,10.40
2019-05-12T12:38:53.524Z,10.70
2019-05-12T12:41:43.621Z,12.50
2019-05-12T12:44:34.105Z,13.60
2019-05-12T12:47:23.813Z,14.00
2019-05-12T12:50:13.312Z,15.30
2019-05-12T12:53:01.402Z,15.20
2019-05-12T12:56:04.164Z,14.70
2019-05-12T12:58:51.401Z,14.60
2019-05-12T13:01:46.533Z,14.60
2019-05-12T13:04:39.534Z,14.00
2019-05-12T13:07:24.359Z,14.10
2019-05-12T13:10:14.297Z,13.80
2019-05-12T13:13:04.472Z,13.60
2019-05-12T13:15:53.520Z,15.20
2019-05-12T13:18:43.487Z,16.10
2019-05-12T13:21:34.698Z,16.60
2019-05-12T13:24:22.486Z,16.60
2019-05-12T13:27:19.272Z,18.90
2019-05-12T13:30:16.328Z,19.70
2019-05-12T13:32:59.622Z,18.70
2019-05-12T13:35:55.747Z,16.90
2019-05-12T13:38:53.244Z,16.40
2019-05-12T13:41:45.368Z,15.90
2019-05-12T13:44:40.802Z,17.00
2019-05-12T13:47:34.025Z,17.10
2019-05-12T13:50:21.880Z,16.80
2019-05-12T13:53:13.695Z,16.90
2019-05-12T13:56:01.443Z,18.70
2019-05-12T13:58:49.590Z,20.20
2019-05-12T14:01:45.839Z,19.40
2019-05-12T14:04:33.658Z,18.50
2019-05-12T14:07:28.655Z,17.40
2019-05-12T14:10:25.671Z,18.30
2019-05-12T14:13:09.848Z,18.70
2019-05-12T14:15:58.584Z,18.20
2019-05-12T14:18:57.088Z,16.80
2019-05-12T14:21:54.143Z,15.90
2019-05-12T14:24:57.132Z,16.80
2019-05-12T14:27:53.405Z,19.10
2019-05-12T14:30:46.141Z,20.30
2019-05-12T14:33:39.337Z,19.20
2019-05-12T14:36:27.105Z,18.60
2019-05-12T14:39:14.685Z,18.10
2019-05-12T14:42:04.380Z,17.70
2019-05-12T14:44:54.078Z,18.20
2019-05-12T14:47:43.646Z,18.00
2019-05-12T14:50:33.647Z,17.30
2019-05-12T14:53:23.503Z,16.10
2019-05-12T14:56:10.653Z,15.30
2019-05-12T14:59:13.841Z,15.00
2019-05-12T15:05:54.739Z,15.10
2019-05-12T15:08:57.846Z,18.60
2019-05-12T15:12:19.971Z,20.80
2019-05-12T15:15:36.321Z,22.90
2019-05-12T15:22:01.600Z,22.90
2019-05-12T15:24:58.867Z,20.40
2019-05-12T15:28:08.458Z,20.40
2019-05-12T15:31:33.731Z,21.90
2019-05-12T15:38:38.018Z,17.50
2019-05-12T15:42:18.051Z,16.60
2019-05-12T15:45:16.228Z,17.30
2019-05-12T15:48:34.028Z,19.00
2019-05-12T15:51:24.258Z,21.10
2019-05-12T15:54:46.412Z,20.70
2019-05-12T15:57:38.624Z,21.60
2019-05-12T16:00:49.812Z,21.40
2019-05-12T16:04:11.707Z,21.60
2019-05-12T16:07:14.212Z,22.80
2019-05-12T16:13:53.745Z,20.70
2019-05-12T16:16:42.447Z,19.00
2019-05-12T16:23:28.034Z,17.90
2019-05-12T16:26:12.494Z,19.10
2019-05-12T16:29:03.178Z,20.90
2019-05-12T16:31:49.986Z,21.30
2019-05-12T16:34:44.833Z,21.90
2019-05-12T16:37:31.037Z,20.30
2019-05-12T16:40:17.297Z,18.80
2019-05-12T16:43:05.456Z,18.20
2019-05-12T16:45:53.885Z,17.70
2019-05-12T16:48:42.297Z,19.30
2019-05-12T16:51:33.253Z,21.60
2019-05-12T16:54:24.129Z,22.20
2019-05-12T16:57:18.268Z,22.00
2019-05-12T17:00:15.624Z,21.50
2019-05-12T17:03:09.080Z,21.60
2019-05-12T17:05:58.570Z,20.80
2019-05-12T17:08:51.536Z,19.00
2019-05-12T17:11:47.223Z,18.10
2019-05-12T17:14:36.614Z,16.60
2019-05-12T17:17:24.741Z,15.40
2019-05-12T17:20:17.499Z,15.50
2019-05-12T17:23:08.435Z,15.50
2019-05-12T17:26:00.852Z,16.10
2019-05-12T17:28:54.107Z,17.50
2019-05-12T17:31:47.294Z,19.30
2019-05-12T17:34:45.846Z,17.80
2019-05-12T17:37:39.808Z,16.80
2019-05-12T17:40:25.243Z,15.90
2019-05-12T17:43:15.136Z,15.80
2019-05-12T17:46:05.012Z,17.20
2019-05-12T17:48:53.465Z,17.90
2019-05-12T17:51:43.131Z,18.10
2019-05-12T17:54:34.165Z,16.70
2019-05-12T17:57:23.590Z,15.70
2019-05-12T18:00:14.000Z,14.80
2019-05-12T18:03:17.498Z,14.30
2019-05-12T18:05:52.974Z,14.10
2019-05-12T18:08:40.948Z,13.80
2019-05-12T18:11:28.900Z,13.80
2019-05-12T18:14:16.410Z,13.70
2019-05-12T18:17:08.672Z,13.60
2019-05-12T18:19:59.011Z,13.40
2019-05-12T18:22:45.183Z,13.20
2019-05-12T18:25:32.321Z,13.10
2019-05-12T18:28:21.719Z,12.90
2019-05-12T18:31:09.816Z,12.80
2019-05-12T18:33:57.553Z,12.70
2019-05-12T18:36:49.000Z,12.60
2019-05-12T18:39:36.939Z,12.50
2019-05-12T18:42:26.495Z,12.30
2019-05-12T18:45:17.867Z,12.10
2019-05-12T18:48:08.337Z,12.00
2019-05-12T18:50:53.597Z,11.80
2019-05-12T18:53:43.689Z,11.70
2019-05-12T18:56:33.470Z,11.70
2019-05-12T18:59:21.098Z,11.60
2019-05-12T19:02:14.569Z,11.50
2019-05-12T19:05:06.794Z,11.30
2019-05-12T19:08:19.902Z,11.00
2019-05-12T19:11:18.900Z,10.80
2019-05-12T19:13:58.049Z,10.70
2019-05-12T19:16:53.810Z,10.60
2019-05-12T19:19:45.949Z,10.20
2019-05-12T19:22:33.529Z,9.80
2019-05-12T19:25:20.235Z,9.50
2019-05-12T19:28:10.520Z,9.50
2019-05-12T19:31:00.819Z,9.40
2019-05-12T19:33:53.349Z,9.30
2019-05-12T19:36:44.845Z,9.20
2019-05-12T19:39:26.890Z,9.10
2019-05-12T19:42:28.949Z,9.20
2019-05-12T19:45:19.775Z,8.90
2019-05-12T19:48:22.069Z,8.80
2019-05-12T19:51:03.180Z,8.90
2019-05-12T19:53:50.992Z,8.90
2019-05-12T19:56:45.161Z,8.90
2019-05-12T19:59:34.205Z,8.80
2019-05-12T20:02:26.565Z,8.80
2019-05-12T20:05:28.533Z,8.90
2019-05-12T20:08:19.668Z,9.10
2019-05-12T20:11:20.138Z,8.90
2019-05-12T20:14:24.088Z,8.90
2019-05-12T20:17:17.782Z,8.80
2019-05-12T20:20:06.346Z,8.90
2019-05-12T20:22:58.272Z,8.80
2019-05-12T20:25:56.433Z,8.70
2019-05-12T20:29:00.037Z,8.50
2019-05-12T20:31:53.994Z,8.50
2019-05-12T20:34:51.576Z,8.40
2019-05-12T20:37:46.575Z,8.20
2019-05-12T20:40:37.253Z,8.20
2019-05-12T20:43:24.044Z,8.20
2019-05-12T20:46:15.838Z,8.30
2019-05-12T20:49:01.120Z,8.40
2019-05-12T20:51:55.213Z,8.40
2019-05-12T20:54:38.649Z,8.30
2019-05-12T20:57:26.737Z,8.20
2019-05-12T21:00:15.395Z,8.30
2019-05-12T21:03:04.416Z,8.40
2019-05-12T21:05:58.178Z,8.40
2019-05-12T21:08:46.635Z,8.40
2019-05-12T21:11:33.695Z,8.50
2019-05-12T21:14:20.663Z,8.40
2019-05-12T21:17:11.597Z,8.50
2019-05-12T21:19:59.484Z,8.50
2019-05-12T21:22:47.660Z,8.50
2019-05-12T21:25:35.950Z,8.50
2019-05-12T21:28:24.079Z,8.50
2019-05-12T21:31:14.009Z,8.50
2019-05-12T21:34:03.825Z,8.30
2019-05-12T21:36:49.995Z,8.40
2019-05-12T21:39:40.656Z,8.10
2019-05-12T21:42:27.127Z,8.00
2019-05-12T21:45:14.870Z,8.00
2019-05-12T21:48:34.130Z,8.10
2019-05-12T21:51:29.273Z,8.10
2019-05-12T21:54:17.840Z,7.70
2019-05-12T21:57:05.682Z,7.60
2019-05-12T21:59:55.568Z,7.50
2019-05-12T22:02:42.691Z,7.40
2019-05-12T22:05:48.005Z,7.40
2019-05-12T22:08:23.110Z,7.20
2019-05-12T22:11:11.694Z,7.20
2019-05-12T22:14:00.385Z,6.90
2019-05-12T22:16:50.573Z,6.80
2019-05-12T22:19:38.289Z,6.80
2019-05-12T22:22:29.944Z,6.80
2019-05-12T22:25:16.174Z,6.90
2019-05-12T22:28:08.218Z,6.90
2019-05-12T22:30:54.222Z,6.90
2019-05-12T22:33:49.738Z,6.90
2019-05-12T22:36:33.529Z,6.80
2019-05-12T22:39:21.018Z,6.70
2019-05-12T22:42:11.506Z,6.60
2019-05-12T22:45:01.668Z,6.50
2019-05-12T22:47:49.261Z,6.60
2019-05-12T22:50:37.159Z,6.60
2019-05-12T22:53:29.738Z,6.60
2019-05-12T22:56:17.935Z,6.60
2019-05-12T22:59:04.558Z,6.50
2019-05-12T23:01:54.199Z,6.30
2019-05-12T23:04:43.965Z,6.30
2019-05-12T23:07:33.132Z,6.10
2019-05-12T23:10:21.068Z,5.90
2019-05-12T23:13:09.111Z,5.80
2019-05-12T23:15:57.052Z,5.70
2019-05-12T23:18:44.553Z,5.70
2019-05-12T23:21:32.551Z,5.70
2019-05-12T23:24:20.681Z,5.80
2019-05-12T23:27:09.063Z,5.90
2019-05-12T23:30:01.594Z,5.80
2019-05-12T23:32:51.537Z,5.90
2019-05-12T23:35:39.474Z,6.00
2019-05-12T23:38:25.308Z,6.00
2019-05-12T23:41:13.600Z,6.10
2019-05-12T23:44:01.246Z,6.00
2019-05-12T23:46:49.185Z,6.00
2019-05-12T23:49:37.279Z,6.10
2019-05-12T23:52:25.923Z,6.10
2019-05-12T23:55:14.054Z,6.20
2019-05-12T23:58:04.229Z,6.20
